createdAt,value
2018-03-03T00:02:31.575Z,99.20
2018-03-03T00:05:11.544Z,99.30
2018-03-03T00:07:49.901Z,99.30
2018-03-03T00:10:25.831Z,99.30
2018-03-03T00:13:02.836Z,99.40
2018-03-03T00:15:39.065Z,99.40
2018-03-03T00:18:13.653Z,99.40
2018-03-03T00:20:56.533Z,99.60
2018-03-03T00:23:32.933Z,99.60
2018-03-03T00:26:16.138Z,99.70
2018-03-03T00:28:53.107Z,99.60
2018-03-03T00:31:28.397Z,99.80
2018-03-03T00:34:03.916Z,99.90
2018-03-03T00:36:34.082Z,99.90
2018-03-03T00:39:11.214Z,99.90
2018-03-03T00:41:46.965Z,99.90
2018-03-03T00:44:24.380Z,99.90
2018-03-03T00:47:01.694Z,99.90
2018-03-03T00:49:39.295Z,99.90
2018-03-03T00:52:16.314Z,99.90
2018-03-03T00:54:53.130Z,99.90
2018-03-03T00:57:31.243Z,99.90
2018-03-03T01:00:08.948Z,99.90
2018-03-03T01:02:51.610Z,99.90
2018-03-03T01:05:32.507Z,99.90
2018-03-03T01:08:10.109Z,99.90
2018-03-03T01:10:45.422Z,99.90
2018-03-03T01:13:22.026Z,99.90
2018-03-03T01:15:58.800Z,99.90
2018-03-03T01:18:35.740Z,99.90
2018-03-03T01:21:12.893Z,99.90
2018-03-03T01:23:50.161Z,99.90
2018-03-03T01:26:27.969Z,99.90
2018-03-03T01:29:04.913Z,99.90
2018-03-03T01:31:47.454Z,99.90
2018-03-03T01:34:23.448Z,99.90
2018-03-03T01:37:01.043Z,99.90
2018-03-03T01:39:37.793Z,99.90
2018-03-03T01:42:14.325Z,99.90
2018-03-03T01:44:50.534Z,99.90
2018-03-03T01:47:28.130Z,99.90
2018-03-03T01:50:07.047Z,99.90
2018-03-03T01:52:44.416Z,99.90
2018-03-03T01:55:27.070Z,99.90
2018-03-03T01:58:02.796Z,99.90
2018-03-03T02:00:38.687Z,99.90
2018-03-03T02:03:15.806Z,99.90
2018-03-03T02:05:52.615Z,99.90
2018-03-03T02:08:28.981Z,99.90
2018-03-03T02:11:05.817Z,99.90
2018-03-03T02:13:41.209Z,99.90
2018-03-03T02:16:18.955Z,99.90
2018-03-03T02:18:55.241Z,99.90
2018-03-03T02:21:30.855Z,99.90
2018-03-03T02:24:08.697Z,99.90
2018-03-03T02:26:45.725Z,99.90
2018-03-03T02:29:24.612Z,99.90
2018-03-03T02:32:01.885Z,99.90
2018-03-03T02:34:38.762Z,99.90
2018-03-03T02:37:15.381Z,99.90
2018-03-03T02:39:53.058Z,99.90
2018-03-03T02:42:30.095Z,99.90
2018-03-03T02:45:05.878Z,99.90
2018-03-03T02:47:43.697Z,99.90
2018-03-03T02:50:18.760Z,99.90
2018-03-03T02:52:56.375Z,99.90
2018-03-03T02:55:34.046Z,99.90
2018-03-03T02:58:10.980Z,99.90
2018-03-03T03:00:46.879Z,99.90
2018-03-03T03:03:25.148Z,99.90
2018-03-03T03:06:01.212Z,99.90
2018-03-03T03:08:38.166Z,99.90
2018-03-03T03:11:15.232Z,99.90
2018-03-03T03:13:52.385Z,99.90
2018-03-03T03:16:29.304Z,99.90
2018-03-03T03:19:06.203Z,99.90
2018-03-03T03:21:43.542Z,99.90
2018-03-03T03:24:20.761Z,99.80
2018-03-03T03:26:56.965Z,99.80
2018-03-03T03:29:32.188Z,99.90
2018-03-03T03:32:09.769Z,99.90
2018-03-03T03:34:48.983Z,99.70
2018-03-03T03:37:25.918Z,99.70
2018-03-03T03:40:02.619Z,99.80
2018-03-03T03:42:39.841Z,99.90
2018-03-03T03:45:22.649Z,99.90
2018-03-03T03:47:59.187Z,99.90
2018-03-03T03:50:37.365Z,99.90
2018-03-03T03:53:14.198Z,99.90
2018-03-03T03:55:51.713Z,99.70
2018-03-03T03:58:29.902Z,99.80
2018-03-03T04:01:05.699Z,99.90
2018-03-03T04:03:41.097Z,99.90
2018-03-03T04:06:19.510Z,99.90
2018-03-03T04:08:58.614Z,99.90
2018-03-03T04:11:35.351Z,99.90
2018-03-03T04:14:11.205Z,99.90
2018-03-03T04:16:47.078Z,99.90
2018-03-03T04:19:24.932Z,99.90
2018-03-03T04:22:01.769Z,99.90
2018-03-03T04:24:40.674Z,99.90
2018-03-03T04:27:18.817Z,99.90
2018-03-03T04:29:55.480Z,99.90
2018-03-03T04:32:37.844Z,99.90
2018-03-03T04:35:15.070Z,99.80
2018-03-03T04:37:53.521Z,99.60
2018-03-03T04:40:30.296Z,99.60
2018-03-03T04:43:00.976Z,99.50
2018-03-03T04:45:38.945Z,99.40
2018-03-03T04:48:16.261Z,99.40
2018-03-03T04:50:57.425Z,99.40
2018-03-03T04:53:36.023Z,99.40
2018-03-03T04:56:12.525Z,99.30
2018-03-03T04:58:56.498Z,99.20
2018-03-03T05:01:44.163Z,99.20
2018-03-03T05:04:31.970Z,99.20
2018-03-03T05:07:17.700Z,99.00
2018-03-03T05:10:01.735Z,99.00
2018-03-03T05:12:32.969Z,98.90
2018-03-03T05:15:30.853Z,99.10
2018-03-03T05:18:07.435Z,98.90
2018-03-03T05:20:48.685Z,98.90
2018-03-03T05:23:31.399Z,98.80
2018-03-03T05:26:13.511Z,98.80
2018-03-03T05:28:55.859Z,98.70
2018-03-03T05:31:38.514Z,98.70
2018-03-03T05:34:20.323Z,98.60
2018-03-03T05:37:02.333Z,98.40
2018-03-03T05:39:45.082Z,98.50
2018-03-03T05:42:43.120Z,98.40
2018-03-03T05:48:14.872Z,98.30
2018-03-03T05:50:51.549Z,98.20
2018-03-03T05:53:48.320Z,98.10
2018-03-03T05:59:16.506Z,98.00
2018-03-03T06:02:00.648Z,98.30
2018-03-03T06:04:47.566Z,98.20
2018-03-03T06:07:42.007Z,98.10
2018-03-03T06:12:59.694Z,97.90
2018-03-03T06:15:35.334Z,98.00
2018-03-03T06:18:10.873Z,98.10
2018-03-03T06:20:48.190Z,97.80
2018-03-03T06:23:25.504Z,98.00
2018-03-03T06:26:00.684Z,97.50
2018-03-03T06:28:36.420Z,97.60
2018-03-03T06:31:13.712Z,97.60
2018-03-03T06:33:49.026Z,97.70
2018-03-03T06:36:25.881Z,97.50
2018-03-03T06:38:56.678Z,97.40
2018-03-03T06:41:33.688Z,97.40
2018-03-03T06:44:10.413Z,97.50
2018-03-03T06:46:47.433Z,97.40
2018-03-03T06:49:25.059Z,97.40
2018-03-03T06:52:01.581Z,97.20
2018-03-03T06:54:37.886Z,97.20
2018-03-03T06:57:13.337Z,97.30
2018-03-03T06:59:44.658Z,96.90
2018-03-03T07:02:21.744Z,96.80
2018-03-03T07:04:58.449Z,97.00
2018-03-03T07:07:35.580Z,96.80
2018-03-03T07:10:11.719Z,96.90
2018-03-03T07:12:50.970Z,96.80
2018-03-03T07:15:29.535Z,96.70
2018-03-03T07:18:07.772Z,96.80
2018-03-03T07:20:43.062Z,96.80
2018-03-03T07:23:20.455Z,96.70
2018-03-03T07:25:56.248Z,96.40
2018-03-03T07:28:34.810Z,96.20
2018-03-03T07:31:11.247Z,96.30
2018-03-03T07:33:47.851Z,96.10
2018-03-03T07:36:29.995Z,96.10
2018-03-03T07:39:10.332Z,95.80
2018-03-03T07:41:45.977Z,95.80
2018-03-03T07:44:22.527Z,95.70
2018-03-03T07:46:59.100Z,95.80
2018-03-03T07:49:35.798Z,95.50
2018-03-03T07:52:12.625Z,95.40
2018-03-03T07:54:50.293Z,95.40
2018-03-03T07:57:27.183Z,95.40
2018-03-03T08:00:04.761Z,95.20
2018-03-03T08:02:41.396Z,95.70
2018-03-03T08:05:19.167Z,95.40
2018-03-03T08:07:56.194Z,95.40
2018-03-03T08:10:34.157Z,95.10
2018-03-03T08:13:11.111Z,95.10
2018-03-03T08:15:50.182Z,95.20
2018-03-03T08:18:29.279Z,95.20
2018-03-03T08:21:05.139Z,95.00
2018-03-03T08:23:42.878Z,95.10
2018-03-03T08:26:21.074Z,94.80
2018-03-03T08:28:55.675Z,94.70
2018-03-03T08:31:33.261Z,95.00
2018-03-03T08:34:09.715Z,94.60
2018-03-03T08:36:45.428Z,94.40
2018-03-03T08:39:24.331Z,94.40
2018-03-03T08:42:04.809Z,94.80
2018-03-03T08:44:44.485Z,94.70
2018-03-03T08:47:23.041Z,94.70
2018-03-03T08:50:00.037Z,93.60
2018-03-03T08:52:37.185Z,93.50
2018-03-03T08:55:12.975Z,94.10
2018-03-03T08:57:50.139Z,94.30
2018-03-03T09:00:26.061Z,94.20
2018-03-03T09:03:03.416Z,93.10
2018-03-03T09:05:42.197Z,94.10
2018-03-03T09:08:18.924Z,94.10
2018-03-03T09:10:56.454Z,93.50
2018-03-03T09:13:32.574Z,93.50
2018-03-03T09:16:09.178Z,94.00
2018-03-03T09:18:50.309Z,94.00
2018-03-03T09:21:29.671Z,94.00
2018-03-03T09:24:07.084Z,94.40
2018-03-03T09:26:44.860Z,94.40
2018-03-03T09:29:21.655Z,93.80
2018-03-03T09:31:57.292Z,93.20
2018-03-03T09:34:33.781Z,93.20
2018-03-03T09:37:15.421Z,93.90
2018-03-03T09:39:52.295Z,94.00
2018-03-03T09:42:34.924Z,94.00
2018-03-03T09:45:11.853Z,93.80
2018-03-03T09:47:47.668Z,93.80
2018-03-03T09:50:22.901Z,93.60
2018-03-03T09:53:00.800Z,93.70
2018-03-03T09:55:37.950Z,93.70
2018-03-03T09:58:14.740Z,93.50
2018-03-03T10:00:54.856Z,93.80
2018-03-03T10:03:24.317Z,93.70
2018-03-03T10:06:00.633Z,93.70
2018-03-03T10:08:39.915Z,93.70
2018-03-03T10:11:16.802Z,93.90
2018-03-03T10:13:55.508Z,93.40
2018-03-03T10:16:32.809Z,92.90
2018-03-03T10:19:15.996Z,92.80
2018-03-03T10:21:53.121Z,92.70
2018-03-03T10:24:29.302Z,93.30
2018-03-03T10:27:08.497Z,93.30
2018-03-03T10:29:45.979Z,93.00
2018-03-03T10:32:23.662Z,93.10
2018-03-03T10:35:00.162Z,93.10
2018-03-03T10:37:39.215Z,92.60
2018-03-03T10:40:16.091Z,92.50
2018-03-03T10:42:53.833Z,92.30
2018-03-03T10:45:30.546Z,92.60
2018-03-03T10:48:08.958Z,92.10
2018-03-03T10:50:46.000Z,92.10
2018-03-03T10:53:23.372Z,91.80
2018-03-03T10:56:01.839Z,91.00
2018-03-03T10:58:38.872Z,90.70
2018-03-03T11:01:17.209Z,90.60
2018-03-03T11:03:56.862Z,90.80
2018-03-03T11:06:34.819Z,90.90
2018-03-03T11:09:10.194Z,90.80
2018-03-03T11:11:46.948Z,91.20
2018-03-03T11:14:22.742Z,91.20
2018-03-03T11:16:59.119Z,91.00
2018-03-03T11:19:38.864Z,91.00
2018-03-03T11:22:16.977Z,90.80
2018-03-03T11:24:53.902Z,90.80
2018-03-03T11:27:32.673Z,90.00
2018-03-03T11:30:10.196Z,90.10
2018-03-03T11:32:47.173Z,90.50
2018-03-03T11:35:24.808Z,90.80
2018-03-03T11:38:00.489Z,90.80
2018-03-03T11:40:36.247Z,90.80
2018-03-03T11:43:14.509Z,90.40
2018-03-03T11:45:50.055Z,90.40
2018-03-03T11:48:28.881Z,90.20
2018-03-03T11:51:05.689Z,89.80
2018-03-03T11:53:43.872Z,90.80
2018-03-03T11:56:21.395Z,91.30
2018-03-03T11:59:00.022Z,91.20
2018-03-03T12:01:37.759Z,90.50
2018-03-03T12:04:14.177Z,90.80
2018-03-03T12:06:51.988Z,91.10
2018-03-03T12:09:28.477Z,91.10
2018-03-03T12:12:08.346Z,90.50
2018-03-03T12:14:45.460Z,90.90
2018-03-03T12:17:24.981Z,90.90
2018-03-03T12:20:02.373Z,90.90
2018-03-03T12:22:42.683Z,91.30
2018-03-03T12:25:19.901Z,91.00
2018-03-03T12:27:56.853Z,91.00
2018-03-03T12:30:35.999Z,90.80
2018-03-03T12:33:13.559Z,91.10
2018-03-03T12:35:49.641Z,90.60
2018-03-03T12:38:26.557Z,90.40
2018-03-03T12:41:04.220Z,90.90
2018-03-03T12:43:40.547Z,90.90
2018-03-03T12:46:18.102Z,90.90
2018-03-03T12:48:58.454Z,90.80
2018-03-03T12:51:35.549Z,90.50
2018-03-03T12:54:12.165Z,90.30
2018-03-03T12:56:49.237Z,90.20
2018-03-03T12:59:31.794Z,89.80
2018-03-03T13:02:07.800Z,89.80
2018-03-03T13:04:46.317Z,89.40
2018-03-03T13:07:25.567Z,89.20
2018-03-03T13:10:01.739Z,89.90
2018-03-03T13:12:37.050Z,89.20
2018-03-03T13:15:15.026Z,88.40
2018-03-03T13:17:52.343Z,88.30
2018-03-03T13:20:23.418Z,88.80
2018-03-03T13:22:58.744Z,88.80
2018-03-03T13:25:35.009Z,87.00
2018-03-03T13:28:13.096Z,88.30
2018-03-03T13:30:51.583Z,87.50
2018-03-03T13:33:30.086Z,87.50
2018-03-03T13:36:06.718Z,87.40
2018-03-03T13:38:44.915Z,86.90
2018-03-03T13:41:24.264Z,86.70
2018-03-03T13:44:01.802Z,86.70
2018-03-03T13:46:41.548Z,86.50
2018-03-03T13:49:17.087Z,85.80
2018-03-03T13:51:54.537Z,87.30
2018-03-03T13:54:32.531Z,85.20
2018-03-03T13:57:09.682Z,85.10
2018-03-03T13:59:46.432Z,84.50
2018-03-03T14:02:24.507Z,85.00
2018-03-03T14:05:00.299Z,83.50
2018-03-03T14:07:37.625Z,82.40
2018-03-03T14:10:15.474Z,82.80
2018-03-03T14:12:51.280Z,82.70
2018-03-03T14:15:28.997Z,84.00
2018-03-03T14:18:05.987Z,83.90
2018-03-03T14:20:43.947Z,82.60
2018-03-03T14:23:27.417Z,82.00
2018-03-03T14:26:05.945Z,81.70
2018-03-03T14:28:42.500Z,80.00
2018-03-03T14:31:20.307Z,80.80
2018-03-03T14:33:57.902Z,80.80
2018-03-03T14:36:35.526Z,81.00
2018-03-03T14:39:14.738Z,81.70
2018-03-03T14:41:52.382Z,82.10
2018-03-03T14:44:29.662Z,82.10
2018-03-03T14:47:06.300Z,82.20
2018-03-03T14:49:43.329Z,82.60
2018-03-03T14:52:20.014Z,83.00
2018-03-03T14:54:58.702Z,82.30
2018-03-03T14:57:35.852Z,82.30
2018-03-03T15:00:15.039Z,82.20
2018-03-03T15:02:54.608Z,82.20
2018-03-03T15:05:32.084Z,82.20
2018-03-03T15:08:11.650Z,84.50
2018-03-03T15:10:48.881Z,84.60
2018-03-03T15:13:25.160Z,86.30
2018-03-03T15:16:02.550Z,86.90
2018-03-03T15:18:38.244Z,85.90
2018-03-03T15:21:14.979Z,85.90
2018-03-03T15:23:51.230Z,87.20
2018-03-03T15:26:28.728Z,87.70
2018-03-03T15:29:06.484Z,87.50
2018-03-03T15:31:44.743Z,87.50
2018-03-03T15:34:21.394Z,87.60
2018-03-03T15:36:58.014Z,87.70
2018-03-03T15:39:33.679Z,88.10
2018-03-03T15:42:10.878Z,88.20
2018-03-03T15:44:47.874Z,88.40
2018-03-03T15:47:27.758Z,87.70
2018-03-03T15:50:06.131Z,88.80
2018-03-03T15:52:43.972Z,89.90
2018-03-03T15:55:26.481Z,89.60
2018-03-03T15:58:04.964Z,90.20
2018-03-03T16:00:45.266Z,90.50
2018-03-03T16:03:21.208Z,90.50
2018-03-03T16:05:58.005Z,90.30
2018-03-03T16:08:34.962Z,90.60
2018-03-03T16:11:12.963Z,90.30
2018-03-03T16:13:48.662Z,90.30
2018-03-03T16:16:30.487Z,90.40
2018-03-03T16:19:07.672Z,91.00
2018-03-03T16:21:43.924Z,91.10
2018-03-03T16:24:21.843Z,91.00
2018-03-03T16:26:58.643Z,91.00
2018-03-03T16:29:35.725Z,91.00
2018-03-03T16:32:13.468Z,91.00
2018-03-03T16:34:52.582Z,90.70
2018-03-03T16:37:30.069Z,91.00
2018-03-03T16:40:07.768Z,91.30
2018-03-03T16:42:45.021Z,91.20
2018-03-03T16:45:21.024Z,91.20
2018-03-03T16:47:58.515Z,91.20
2018-03-03T16:50:37.166Z,91.30
2018-03-03T16:53:13.763Z,91.30
2018-03-03T16:55:50.942Z,91.30
2018-03-03T16:58:26.498Z,91.50
2018-03-03T17:01:03.994Z,91.60
2018-03-03T17:03:41.999Z,91.70
2018-03-03T17:06:20.531Z,91.80
2018-03-03T17:08:58.392Z,92.00
2018-03-03T17:11:35.422Z,92.10
2018-03-03T17:14:11.999Z,92.30
2018-03-03T17:16:51.908Z,92.50
2018-03-03T17:19:27.676Z,92.60
2018-03-03T17:22:03.506Z,92.80
2018-03-03T17:24:39.541Z,92.80
2018-03-03T17:27:10.714Z,93.10
2018-03-03T17:29:49.467Z,93.00
2018-03-03T17:32:32.149Z,93.30
2018-03-03T17:35:11.859Z,93.30
2018-03-03T17:37:47.948Z,93.40
2018-03-03T17:40:24.244Z,93.80
2018-03-03T17:42:59.912Z,93.60
2018-03-03T17:45:39.277Z,93.70
2018-03-03T17:48:20.179Z,93.80
2018-03-03T17:50:57.558Z,93.70
2018-03-03T17:53:34.453Z,93.90
2018-03-03T17:56:13.866Z,93.90
2018-03-03T17:58:51.140Z,94.00
2018-03-03T18:01:29.114Z,94.10
2018-03-03T18:04:05.857Z,94.20
2018-03-03T18:06:42.584Z,94.30
2018-03-03T18:09:25.847Z,94.30
2018-03-03T18:12:05.657Z,94.30
2018-03-03T18:14:42.639Z,94.40
2018-03-03T18:17:19.548Z,94.50
2018-03-03T18:19:56.804Z,94.40
2018-03-03T18:22:35.088Z,94.50
2018-03-03T18:25:13.919Z,94.50
2018-03-03T18:27:49.486Z,94.40
2018-03-03T18:30:27.045Z,94.30
2018-03-03T18:33:03.448Z,94.30
2018-03-03T18:35:39.834Z,94.40
2018-03-03T18:38:15.232Z,94.30
2018-03-03T18:40:53.536Z,94.30
2018-03-03T18:43:32.565Z,94.40
2018-03-03T18:46:11.838Z,94.30
2018-03-03T18:48:49.007Z,94.40
2018-03-03T18:51:26.416Z,94.70
2018-03-03T18:54:02.355Z,94.60
2018-03-03T18:56:39.685Z,94.60
2018-03-03T18:59:17.861Z,94.70
2018-03-03T19:01:56.188Z,94.90
2018-03-03T19:04:33.220Z,94.90
2018-03-03T19:07:10.588Z,95.00
2018-03-03T19:09:49.616Z,95.30
2018-03-03T19:12:27.411Z,95.00
2018-03-03T19:15:04.101Z,95.00
2018-03-03T19:17:40.775Z,95.10
2018-03-03T19:20:18.181Z,95.20
2018-03-03T19:22:53.538Z,95.30
2018-03-03T19:25:29.290Z,95.30
2018-03-03T19:28:05.549Z,95.40
2018-03-03T19:30:41.892Z,95.50
2018-03-03T19:33:17.224Z,95.50
2018-03-03T19:35:55.469Z,95.60
2018-03-03T19:38:38.222Z,95.80
2018-03-03T19:41:15.669Z,96.10
2018-03-03T19:43:55.410Z,95.80
2018-03-03T19:46:34.238Z,95.90
2018-03-03T19:49:11.041Z,95.90
2018-03-03T19:51:47.919Z,96.00
2018-03-03T19:54:23.662Z,96.00
2018-03-03T19:56:59.206Z,96.00
2018-03-03T19:59:36.168Z,96.10
2018-03-03T20:02:12.246Z,96.20
2018-03-03T20:04:50.477Z,96.30
2018-03-03T20:07:27.643Z,96.20
2018-03-03T20:10:06.524Z,96.30
2018-03-03T20:12:42.127Z,96.20
2018-03-03T20:15:20.056Z,96.40
2018-03-03T20:17:55.525Z,96.40
2018-03-03T20:20:33.904Z,96.40
2018-03-03T20:23:09.679Z,96.40
2018-03-03T20:25:45.550Z,96.40
2018-03-03T20:28:20.697Z,96.40
2018-03-03T20:30:57.702Z,96.50
2018-03-03T20:33:33.563Z,96.80
2018-03-03T20:36:10.939Z,96.40
2018-03-03T20:38:46.450Z,96.40
2018-03-03T20:41:22.448Z,96.40
2018-03-03T20:43:59.368Z,96.60
2018-03-03T20:46:41.464Z,96.60
2018-03-03T20:49:22.148Z,96.60
2018-03-03T20:51:59.274Z,96.50
2018-03-03T20:54:37.488Z,96.70
2018-03-03T20:57:14.458Z,96.70
2018-03-03T20:59:54.171Z,96.80
2018-03-03T21:02:31.758Z,96.70
2018-03-03T21:05:08.244Z,96.90
2018-03-03T21:07:46.586Z,96.80
2018-03-03T21:10:21.986Z,97.10
2018-03-03T21:12:58.627Z,96.90
2018-03-03T21:15:35.496Z,96.70
2018-03-03T21:18:12.188Z,96.70
2018-03-03T21:20:48.359Z,96.70
2018-03-03T21:23:22.684Z,96.50
2018-03-03T21:26:00.371Z,96.50
2018-03-03T21:28:36.304Z,96.50
2018-03-03T21:31:14.991Z,96.50
2018-03-03T21:33:51.626Z,96.40
2018-03-03T21:36:26.967Z,96.50
2018-03-03T21:39:04.089Z,96.30
2018-03-03T21:41:41.547Z,96.20
2018-03-03T21:44:18.660Z,96.20
2018-03-03T21:46:54.455Z,96.00
2018-03-03T21:49:31.485Z,96.00
2018-03-03T21:52:08.216Z,95.90
2018-03-03T21:54:43.878Z,95.90
2018-03-03T21:57:21.228Z,95.70
2018-03-03T21:59:57.165Z,95.70
2018-03-03T22:02:34.870Z,95.50
2018-03-03T22:05:11.855Z,95.50
2018-03-03T22:07:47.739Z,95.50
2018-03-03T22:10:18.364Z,95.70
2018-03-03T22:12:54.162Z,95.50
2018-03-03T22:15:32.220Z,95.20
2018-03-03T22:18:09.008Z,95.20
2018-03-03T22:20:46.440Z,95.20
2018-03-03T22:23:24.019Z,95.10
2018-03-03T22:26:00.526Z,95.10
2018-03-03T22:28:36.391Z,95.00
2018-03-03T22:31:11.820Z,94.90
2018-03-03T22:33:50.681Z,94.90
2018-03-03T22:36:29.231Z,95.00
2018-03-03T22:39:05.475Z,94.90
2018-03-03T22:41:42.970Z,95.10
2018-03-03T22:44:18.693Z,95.00
2018-03-03T22:46:55.577Z,95.10
2018-03-03T22:49:32.465Z,95.10
2018-03-03T22:52:10.031Z,95.00
2018-03-03T22:54:46.949Z,94.80
2018-03-03T22:57:22.880Z,94.90
2018-03-03T22:59:59.776Z,94.70
2018-03-03T23:02:35.540Z,94.80
2018-03-03T23:05:11.993Z,94.70
2018-03-03T23:07:47.066Z,94.70
2018-03-03T23:10:26.381Z,94.80
2018-03-03T23:13:02.681Z,94.90
2018-03-03T23:15:38.785Z,94.90
2018-03-03T23:18:17.871Z,95.00
2018-03-03T23:20:57.285Z,95.10
2018-03-03T23:23:34.512Z,95.20
2018-03-03T23:26:10.378Z,95.20
2018-03-03T23:28:48.044Z,95.50
2018-03-03T23:31:23.750Z,95.50
2018-03-03T23:34:00.171Z,95.60
2018-03-03T23:36:35.691Z,95.80
2018-03-03T23:39:12.678Z,95.70
2018-03-03T23:41:54.287Z,95.80
2018-03-03T23:44:31.449Z,95.70
2018-03-03T23:47:11.344Z,95.70
2018-03-03T23:49:46.693Z,95.70
2018-03-03T23:52:23.371Z,95.60
2018-03-03T23:55:00.616Z,95.80
2018-03-03T23:57:43.033Z,95.80
